Henrique Amaral

Scout - Vasco da Gama
4 Dec 2028
Monday
Process

Personality

Adaptability (8) Ambition (17) Controversy (9) Loyalty (20) Pressure (18) Professionalism (18) Sportsmanship (16) Temperament (3)

Profile

Coaching Style Democratic
License Continental Pro
Determination 6
Man Management 12
Motivating 12
Discipline 8
Job Satisfaction
100%
Fatigue
0%
Role Scout
Wage 54.6K p/w
Contract 14.03.2030

Performance

Behaviour Good
Training Effectiveness
46%
Player Development
45%
Injury Prevention
60%
Tactical Implementation
70%

Recent Events

Attended a recruitment meeting now
Recommended a transfer target now
Recommended a transfer target now
Assessed a player 7d ago
Attended a recruitment meeting 7d ago
Recommended a transfer target 7d ago
Recommended a transfer target 7d ago
Assessed a player 7d ago

Currently Monitoring

114
Player Club Status Ability Confidence Watched Last Observed Latest Vote
Lucca São Paulo Report Ready 121 / 123 76% 1 02.12.2028 -
Guille Rosas Boca Juniors Active 153 / 147 40% 4 30.11.2028 -
Juan Pablo Freytes Fluminense Active 135 / 136 40% 3 30.11.2028 -
Lyanco Atlético Mineiro Active 132 / 138 40% 1 30.11.2028 -
Danilo Botafogo Active 146 / 152 40% 2 28.11.2028 -
Juan Ignacio Nardoni Grêmio Active 140 / 141 40% 2 28.11.2028 -
Matheus Bidu Corinthians Active 132 / 121 40% 2 23.11.2028 -
Kauã Moraes Flamengo Active 127 / 138 40% 2 23.11.2028 -
Martinelli Fluminense Active 139 / 140 40% 2 20.11.2028 -
Luciano Juba Bahia Active 141 / 125 40% 1 20.11.2028 -
Agustín Giay Palmeiras Active 132 / 135 40% 1 20.11.2028 -
Felipe Peña Biafore Lanús Active 136 / 127 40% 2 17.11.2028 -
Vitinho Botafogo Active 141 / 143 40% 2 17.11.2028 -
Léo Ortiz Flamengo Active 142 / 144 40% 3 15.11.2028 -
Fabrício Bruno Cruzeiro Active 137 / 137 40% 1 15.11.2028 -
Eros Mancuso Fortaleza Active 125 / 132 40% 1 15.11.2028 -
Adrián Sánchez Belgrano Active 131 / 121 40% 5 13.11.2028 -
Gonzalo Luján Inter Miami CF Active 129 / 123 40% 2 13.11.2028 -
Vitão Flamengo Active 137 / 149 40% 2 13.11.2028 -
Francisco Álvarez Nacional Active 124 / 127 40% 4 07.11.2028 -
Agustín Sant'Anna Bragantino Active 125 / 120 40% 1 07.11.2028 -
Gastón Martirena Racing Club Active 126 / 122 40% 5 06.11.2028 -
Augusto Schott Talleres Active 122 / 124 40% 2 06.11.2028 -
Jonathan De Irastorza Independiente Active 131 / 131 40% 4 05.11.2028 -
Kayne Ramsay Atlético Mineiro Active 129 / 140 40% 4 05.11.2028 -
Santiago Longo Belgrano Active 128 / 133 40% 5 04.11.2028 -
Vicente Poggi Godoy Cruz Active 122 / 130 40% 2 04.11.2028 -
Kaiki Cruzeiro Active 137 / 140 40% 2 03.11.2028 -
Alexandro Bernabei Internacional Active 140 / 137 40% 3 03.11.2028 -
Matheus Henrique Cruzeiro Active 139 / 133 40% 2 02.11.2028 -
Agustín Sández Newell's Old Boys Active 121 / 131 40% 2 02.11.2028 -
Guga Fluminense Active 126 / 123 40% 1 02.11.2028 -
Bruno Leyes Godoy Cruz Active 127 / 133 40% 3 28.10.2028 -
Emiliano Álvarez Progreso Active 120 / 116 40% 6 25.10.2028 -
Juninho Capixaba Bragantino Active 131 / 131 40% 1 25.10.2028 -
Guillermo Enrique Huracán Active 126 / 127 40% 1 25.10.2028 -
Lucas Paquetá Flamengo Active 145 / 150 40% 1 21.10.2028 -
Gastón Benedetti Estudiantes Active 130 / 136 40% 1 12.10.2028 -
Ignacio Perruzzi San Lorenzo Active 132 / 139 40% 2 04.10.2028 -
Renan Lodi Atlético Mineiro Active 133 / 137 40% 2 02.10.2028 -
Marcos López Gimnasia La Plata Active 133 / 124 40% 1 01.10.2028 -
Lucas Morales Nacional Active 125 / 121 40% 1 30.09.2028 -
César Ibáñez Huracán Active 132 / 124 40% 1 30.09.2028 -
Gonzalo Pérez Lanús Active 123 / 127 40% 1 14.09.2028 -
Igor Jesus Los Angeles Football Club Active 122 / 129 40% 1 14.09.2028 -
Alan Rodríguez Rosario Central Active 120 / 117 40% 1 13.09.2028 -
Tomás Escalante River Plate Active 124 / 123 40% 1 13.09.2028 -
Aarón Quiros Vélez Active 134 / 136 40% 2 09.09.2028 -
Gonzalo Montiel River Plate Active 133 / 123 40% 1 09.09.2028 -
Joaquín Mosqueira Talleres Active 126 / 120 40% 1 08.09.2028 -
Damián Bobadilla Sport Recife Active 131 / 130 40% 1 06.09.2028 -
Harry Wilson Leeds United Active 160 / 140 40% 1 10.07.2028 -
Carlos Alcaraz Stoke City Active 147 / 144 40% 1 10.07.2028 -
Maximiliano Araújo West Ham United Active 149 / 145 40% 1 31.05.2028 -
Ben Gannon Doak Charlton Athletic Active 148 / 156 40% 1 31.05.2028 -
Callum O'Hare Sheffield United Active 146 / 139 40% 1 31.05.2028 -
Carl Rushworth Aston Villa Active 160 / 160 40% 2 03.04.2028 -
Aaron Ramsdale Southampton Active 162 / 159 40% 2 03.04.2028 -
Lucas Arcanjo Vitória Active 123 / 120 40% 1 03.04.2028 -
Josh Keeley Luton Town Active 141 / 148 40% 4 01.04.2028 -
Carlos Miguel Palmeiras Active 127 / 140 40% 2 01.04.2028 -
Sol Brynn Bradford City Active 140 / 124 40% 2 26.03.2028 -
Lukáš Horníček Burnley Active 147 / 148 40% 2 26.03.2028 -
Fran Vieites Walsall Active 135 / 118 40% 3 25.03.2028 -
Dean Henderson Crystal Palace Active 162 / 165 40% 1 25.03.2028 -
Hugo Souza Corinthians Active 134 / 147 40% 3 24.03.2028 -
Joe Lumley Sheffield Wednesday Active 117 / 120 40% 1 21.03.2028 -
Gabriel Batista Botafogo Active 130 / 124 40% 1 20.03.2028 -
Gabriel Brazão Santos Active 140 / 143 40% 3 19.03.2028 -
Nick Pope Newcastle United Active 135 / 149 40% 1 16.03.2028 -
Christos Mandas Lazio Active 148 / 141 40% 1 16.03.2028 -
Ronald Vitória Active 119 / 128 72% 1 12.07.2027 Approve
Pedro Flamengo Active 146 / 140 69% 1 28.06.2027 Approve
Tiago Freitas Benfica Active 110 / 127 40% 2 30.05.2027 -
Andrea Bertoncini Triestina Active 92 / 96 40% 1 30.05.2027 -
Mads Hermansen West Ham United Active 140 / 148 40% 3 29.05.2027 -
Kazunari Kita Real Sociedad Active 107 / 99 40% 4 29.05.2027 -
Lucas Bergvall Tottenham Active 150 / 161 40% 3 29.05.2027 -
Nathan Bishop AFC Wimbledon Active 102 / 114 40% 1 29.05.2027 -
Martim Cunha Porto Active 105 / 119 40% 2 26.05.2027 -
Ezra Mayers West Ham United Active 128 / 138 40% 2 25.05.2027 -
Sascha Britschgi AC Milan Active 118 / 115 40% 1 24.05.2027 -
Tommaso Cecotti Carpi Active 83 / 92 40% 1 24.05.2027 -
Elia Caprile Cagliari Active 145 / 134 40% 2 23.05.2027 -
Matteo Sorzi Carpi Active 101 / 116 40% 1 23.05.2027 -
Matteo Rizzo Cosenza Active 98 / 102 40% 1 23.05.2027 -
James Trafford Leeds United Active 141 / 153 40% 3 18.05.2027 -
Deniz Ertaş Konyaspor Active 112 / 141 40% 1 16.05.2027 -
Charlie Gray Fleetwood Town Active 100 / 98 40% 3 14.05.2027 -
Jan Bürger Northampton Town Active 107 / 120 40% 3 14.05.2027 -
Mile Svilar AS Roma Active 162 / 164 40% 1 12.05.2027 -
Miguel Figueiredo Benfica Active 101 / 133 40% 2 11.05.2027 -
Cesare Galeotti Trapani Active 111 / 107 40% 2 08.05.2027 -
Bence Dárdai VfL Wolfsburg Active 135 / 132 40% 1 30.04.2027 -
Ludovico Del Sorbo Sorrento Active 102 / 106 40% 1 28.04.2027 -
Radek Vítek Middlesbrough Active 129 / 146 40% 1 26.04.2027 -
Murphy Cooper Plymouth Argyle Active 109 / 119 40% 1 24.04.2027 -
Caleb Yirenkyi Coventry City Active 129 / 141 40% 2 17.04.2027 -
Konta Ismaily Active 81 / 99 40% 1 17.04.2027 -
Riley Owen Stevenage Active 93 / 96 40% 1 17.04.2027 -
Yassine Khalifi Charleroi Active 113 / 113 40% 1 16.04.2027 -
Kevin Pinto Benfica Active 106 / 88 40% 1 12.04.2027 -
Anthony Patterson Wrexham Active 122 / 131 40% 4 10.04.2027 -
Shahriar Rezaeian Siah Jamegan Active 122 / 104 40% 1 07.04.2027 -
João Capucho Benfica Active 92 / 85 40% 2 05.04.2027 -
Jenson Jones Walsall Active 105 / 89 40% 1 05.04.2027 -
Samuele di Benedetto Twente Active 110 / 109 40% 1 03.04.2027 -
Tarek Bousseder ES Setif Active 97 / 95 40% 1 31.03.2027 -
Pape Diong Westerlo Active 122 / 135 40% 1 26.03.2027 -
Gonçalo Oliveira Benfica Active 113 / 106 40% 2 25.03.2027 -
Zane Albarus Shrewsbury Town Active 90 / 89 40% 1 25.03.2027 -
Henrique Silva Santa Clara Active 120 / 110 40% 1 24.03.2027 -
Gonçalo Tabuaço Maritimo Active 122 / 106 40% 1 17.03.2027 -
Samuel Soares Benfica Active 136 / 132 40% 1 16.03.2027 -